createdAt,value
2018-02-10T00:01:36.448Z,93.20
2018-02-10T00:04:04.859Z,92.40
2018-02-10T00:06:33.272Z,92.30
2018-02-10T00:09:00.878Z,92.30
2018-02-10T00:11:28.534Z,92.40
2018-02-10T00:13:56.147Z,92.30
2018-02-10T00:16:23.776Z,92.40
2018-02-10T00:18:51.384Z,92.40
2018-02-10T00:21:19.056Z,92.30
2018-02-10T00:23:47.431Z,92.30
2018-02-10T00:26:15.085Z,92.30
2018-02-10T00:28:42.728Z,92.20
2018-02-10T00:31:11.124Z,92.20
2018-02-10T00:33:38.748Z,92.20
2018-02-10T00:36:06.368Z,92.00
2018-02-10T00:38:34.016Z,92.00
2018-02-10T00:41:01.613Z,91.90
2018-02-10T00:43:29.288Z,91.90
2018-02-10T00:45:57.645Z,92.20
2018-02-10T00:48:25.251Z,92.20
2018-02-10T00:50:53.624Z,92.00
2018-02-10T00:53:22.039Z,91.90
2018-02-10T00:55:49.639Z,91.90
2018-02-10T00:58:35.279Z,91.90
2018-02-10T01:01:03.655Z,92.20
2018-02-10T01:03:31.453Z,92.10
2018-02-10T01:05:59.849Z,92.50
2018-02-10T01:08:28.280Z,92.60
2018-02-10T01:10:55.871Z,92.60
2018-02-10T01:13:23.508Z,92.60
2018-02-10T01:15:51.173Z,92.50
2018-02-10T01:18:19.579Z,92.50
2018-02-10T01:20:47.266Z,92.50
2018-02-10T01:23:14.945Z,92.30
2018-02-10T01:25:42.666Z,92.20
2018-02-10T01:28:10.411Z,92.30
2018-02-10T01:30:38.081Z,92.30
2018-02-10T01:33:05.719Z,92.30
2018-02-10T01:35:33.390Z,92.30
2018-02-10T01:38:01.029Z,92.30
2018-02-10T01:40:28.677Z,92.20
2018-02-10T01:42:56.279Z,92.40
2018-02-10T01:45:23.960Z,92.50
2018-02-10T01:47:52.352Z,93.00
2018-02-10T01:50:22.593Z,92.60
2018-02-10T01:52:51.025Z,92.80
2018-02-10T01:55:18.645Z,92.80
2018-02-10T01:57:46.308Z,92.80
2018-02-10T02:00:13.948Z,92.70
2018-02-10T02:02:41.561Z,92.80
2018-02-10T02:05:10.744Z,92.50
2018-02-10T02:07:38.351Z,92.50
2018-02-10T02:10:05.983Z,92.90
2018-02-10T02:12:33.624Z,93.10
2018-02-10T02:15:01.264Z,93.20
2018-02-10T02:17:28.879Z,93.20
2018-02-10T02:19:56.527Z,92.90
2018-02-10T02:22:24.914Z,92.80
2018-02-10T02:24:52.536Z,92.80
2018-02-10T02:27:20.210Z,92.90
2018-02-10T02:29:47.827Z,92.90
2018-02-10T02:32:15.425Z,92.70
2018-02-10T02:34:43.872Z,92.60
2018-02-10T02:37:11.505Z,92.60
2018-02-10T02:39:39.128Z,92.60
2018-02-10T02:42:06.761Z,92.60
2018-02-10T02:44:34.377Z,92.60
2018-02-10T02:47:02.000Z,92.70
2018-02-10T02:49:29.613Z,92.70
2018-02-10T02:51:57.266Z,92.60
2018-02-10T02:54:26.895Z,93.00
2018-02-10T02:56:56.068Z,92.90
2018-02-10T02:59:23.713Z,92.90
2018-02-10T03:01:52.115Z,93.10
2018-02-10T03:04:20.509Z,93.00
2018-02-10T03:06:48.922Z,93.10
2018-02-10T03:09:16.599Z,93.10
2018-02-10T03:11:44.234Z,93.00
2018-02-10T03:14:12.058Z,93.00
2018-02-10T03:16:39.684Z,92.90
2018-02-10T03:19:08.102Z,92.70
2018-02-10T03:21:35.773Z,92.70
2018-02-10T03:24:03.397Z,92.70
2018-02-10T03:26:31.026Z,93.00
2018-02-10T03:28:58.674Z,93.10
2018-02-10T03:31:26.315Z,93.20
2018-02-10T03:33:53.916Z,93.30
2018-02-10T03:36:21.539Z,93.40
2018-02-10T03:38:49.213Z,93.80
2018-02-10T03:41:16.895Z,93.70
2018-02-10T03:43:44.530Z,93.80
2018-02-10T03:46:12.174Z,94.00
2018-02-10T03:48:39.764Z,93.90
2018-02-10T03:51:08.157Z,93.80
2018-02-10T03:53:36.552Z,94.00
2018-02-10T03:56:04.940Z,93.90
2018-02-10T03:58:33.364Z,93.70
2018-02-10T04:01:01.001Z,93.70
2018-02-10T04:03:29.403Z,94.10
2018-02-10T04:05:57.837Z,94.00
2018-02-10T04:08:25.473Z,94.00
2018-02-10T04:10:53.144Z,94.20
2018-02-10T04:13:21.546Z,94.50
2018-02-10T04:15:49.160Z,94.50
2018-02-10T04:18:16.804Z,94.30
2018-02-10T04:20:44.418Z,94.10
2018-02-10T04:23:12.058Z,94.20
2018-02-10T04:25:39.702Z,94.30
2018-02-10T04:28:08.091Z,94.30
2018-02-10T04:30:36.481Z,94.10
2018-02-10T04:33:04.889Z,94.00
2018-02-10T04:35:32.585Z,94.00
2018-02-10T04:38:00.181Z,94.10
2018-02-10T04:40:27.773Z,94.20
2018-02-10T04:42:55.760Z,94.30
2018-02-10T04:45:24.181Z,94.40
2018-02-10T04:47:51.820Z,94.30
2018-02-10T04:50:22.202Z,94.60
2018-02-10T04:52:49.839Z,94.50
2018-02-10T04:55:18.222Z,94.60
2018-02-10T04:57:45.921Z,94.60
2018-02-10T05:00:14.305Z,94.80
2018-02-10T05:02:42.700Z,94.70
2018-02-10T05:05:11.221Z,94.80
2018-02-10T05:07:38.889Z,94.70
2018-02-10T05:10:06.505Z,94.70
2018-02-10T05:12:34.150Z,94.80
2018-02-10T05:15:01.871Z,94.80
2018-02-10T05:17:30.278Z,94.90
2018-02-10T05:19:58.665Z,94.80
2018-02-10T05:22:27.195Z,94.80
2018-02-10T05:24:54.833Z,94.80
2018-02-10T05:27:23.241Z,94.70
2018-02-10T05:29:50.909Z,94.60
2018-02-10T05:32:18.541Z,94.60
2018-02-10T05:34:46.979Z,94.60
2018-02-10T05:37:14.719Z,94.50
2018-02-10T05:39:42.296Z,94.50
2018-02-10T05:42:24.632Z,94.30
2018-02-10T05:44:53.013Z,94.10
2018-02-10T05:47:21.468Z,94.00
2018-02-10T05:49:49.139Z,94.00
2018-02-10T05:52:16.778Z,93.70
2018-02-10T05:54:45.149Z,93.80
2018-02-10T05:57:13.718Z,93.60
2018-02-10T05:59:41.341Z,93.50
2018-02-10T06:02:08.968Z,93.30
2018-02-10T06:04:36.624Z,93.30
2018-02-10T06:07:24.138Z,93.20
2018-02-10T06:09:51.826Z,93.20
2018-02-10T06:12:19.462Z,92.90
2018-02-10T06:14:47.941Z,93.10
2018-02-10T06:17:16.341Z,93.00
2018-02-10T06:19:44.008Z,93.00
2018-02-10T06:22:12.438Z,93.00
2018-02-10T06:24:40.072Z,92.90
2018-02-10T06:27:08.474Z,92.80
2018-02-10T06:29:36.858Z,92.80
2018-02-10T06:32:05.289Z,92.70
2018-02-10T06:34:33.069Z,92.70
2018-02-10T06:37:00.726Z,92.70
2018-02-10T06:39:28.481Z,92.60
2018-02-10T06:41:56.125Z,92.70
2018-02-10T06:44:23.769Z,92.70
2018-02-10T06:46:51.437Z,92.80
2018-02-10T06:49:19.090Z,92.60
2018-02-10T06:51:46.717Z,92.50
2018-02-10T06:54:14.383Z,92.40
2018-02-10T06:56:41.964Z,92.50
2018-02-10T06:59:09.601Z,92.40
2018-02-10T07:01:37.225Z,92.40
2018-02-10T07:04:04.897Z,92.50
2018-02-10T07:06:32.498Z,92.50
2018-02-10T07:09:00.898Z,92.40
2018-02-10T07:11:28.502Z,92.30
2018-02-10T07:13:56.160Z,92.20
2018-02-10T07:16:23.785Z,92.20
2018-02-10T07:18:51.448Z,92.10
2018-02-10T07:21:19.061Z,91.90
2018-02-10T07:23:46.689Z,92.00
2018-02-10T07:26:14.319Z,91.90
2018-02-10T07:28:42.209Z,91.80
2018-02-10T07:31:09.828Z,91.70
2018-02-10T07:33:37.661Z,91.70
2018-02-10T07:36:05.273Z,91.70
2018-02-10T07:38:32.921Z,91.80
2018-02-10T07:41:00.594Z,91.70
2018-02-10T07:43:28.197Z,92.50
2018-02-10T07:45:55.824Z,91.50
2018-02-10T07:48:23.433Z,91.40
2018-02-10T07:50:51.066Z,91.30
2018-02-10T07:53:18.693Z,91.20
2018-02-10T07:55:47.244Z,91.10
2018-02-10T07:58:14.898Z,91.10
2018-02-10T08:00:42.538Z,91.10
2018-02-10T08:03:10.157Z,91.10
2018-02-10T08:05:37.802Z,90.90
2018-02-10T08:08:06.201Z,90.90
2018-02-10T08:10:33.835Z,90.90
2018-02-10T08:13:01.454Z,90.50
2018-02-10T08:15:29.104Z,90.40
2018-02-10T08:17:57.521Z,90.00
2018-02-10T08:20:25.243Z,90.00
2018-02-10T08:22:52.822Z,90.20
2018-02-10T08:25:20.483Z,90.60
2018-02-10T08:27:48.134Z,90.10
2018-02-10T08:30:15.748Z,89.70
2018-02-10T08:32:43.374Z,88.90
2018-02-10T08:35:10.977Z,89.30
2018-02-10T08:37:38.727Z,88.70
2018-02-10T08:40:06.359Z,88.40
2018-02-10T08:42:34.772Z,88.60
2018-02-10T08:45:02.386Z,88.60
2018-02-10T08:47:30.006Z,89.00
2018-02-10T08:49:58.425Z,89.50
2018-02-10T08:52:26.114Z,89.40
2018-02-10T08:54:53.745Z,90.00
2018-02-10T08:57:22.141Z,88.90
2018-02-10T08:59:50.522Z,89.00
2018-02-10T09:02:18.943Z,87.80
2018-02-10T09:04:46.645Z,87.80
2018-02-10T09:07:14.249Z,88.50
2018-02-10T09:09:41.846Z,87.70
2018-02-10T09:12:09.522Z,87.20
2018-02-10T09:14:37.139Z,86.10
2018-02-10T09:17:21.465Z,86.30
2018-02-10T09:19:49.122Z,85.80
2018-02-10T09:22:17.517Z,86.00
2018-02-10T09:24:45.914Z,85.60
2018-02-10T09:27:14.636Z,86.60
2018-02-10T09:29:42.522Z,86.50
2018-02-10T09:32:10.187Z,89.50
2018-02-10T09:34:37.822Z,87.40
2018-02-10T09:37:05.497Z,87.50
2018-02-10T09:39:33.648Z,87.70
2018-02-10T09:42:01.401Z,88.40
2018-02-10T09:44:29.081Z,88.30
2018-02-10T09:46:56.679Z,88.50
2018-02-10T09:49:24.454Z,89.70
2018-02-10T09:51:52.114Z,88.30
2018-02-10T09:54:19.763Z,88.60
2018-02-10T09:56:48.176Z,86.20
2018-02-10T09:59:15.878Z,86.20
2018-02-10T10:01:43.602Z,84.00
2018-02-10T10:04:11.181Z,83.00
2018-02-10T10:06:39.610Z,82.40
2018-02-10T10:09:07.840Z,82.40
2018-02-10T10:11:35.474Z,84.60
2018-02-10T10:14:03.607Z,84.40
2018-02-10T10:16:31.232Z,86.70
2018-02-10T10:18:59.012Z,86.90
2018-02-10T10:21:27.386Z,87.40
2018-02-10T10:23:55.096Z,85.10
2018-02-10T10:26:23.189Z,86.60
2018-02-10T10:28:50.902Z,85.50
2018-02-10T10:31:19.374Z,85.80
2018-02-10T10:33:47.021Z,85.70
2018-02-10T10:36:14.714Z,87.50
2018-02-10T10:38:42.613Z,86.50
2018-02-10T10:41:11.140Z,83.90
2018-02-10T10:43:38.773Z,83.80
2018-02-10T10:46:06.712Z,84.90
2018-02-10T10:48:35.414Z,83.80
2018-02-10T10:51:03.031Z,85.90
2018-02-10T10:53:31.514Z,79.60
2018-02-10T10:55:59.148Z,79.50
2018-02-10T10:58:27.097Z,80.30
2018-02-10T11:00:54.781Z,79.40
2018-02-10T11:03:22.521Z,80.90
2018-02-10T11:05:51.097Z,81.10
2018-02-10T11:08:18.763Z,81.10
2018-02-10T11:10:46.620Z,80.00
2018-02-10T11:13:14.500Z,77.70
2018-02-10T11:15:43.352Z,76.50
2018-02-10T11:18:11.800Z,76.70
2018-02-10T11:20:39.572Z,76.70
2018-02-10T11:23:07.333Z,77.60
2018-02-10T11:25:35.025Z,77.90
2018-02-10T11:28:02.764Z,77.40
2018-02-10T11:30:31.158Z,76.30
2018-02-10T11:33:01.709Z,76.30
2018-02-10T11:35:29.500Z,76.20
2018-02-10T11:37:57.118Z,74.70
2018-02-10T11:40:25.163Z,74.90
2018-02-10T11:42:52.815Z,75.60
2018-02-10T11:45:20.782Z,76.80
2018-02-10T11:47:49.218Z,79.60
2018-02-10T11:50:17.041Z,80.40
2018-02-10T11:52:46.402Z,81.20
2018-02-10T11:55:14.033Z,80.50
2018-02-10T11:57:42.433Z,81.20
2018-02-10T12:00:11.013Z,82.40
2018-02-10T12:02:38.974Z,82.40
2018-02-10T12:05:08.285Z,82.00
2018-02-10T12:07:35.931Z,81.90
2018-02-10T12:10:03.556Z,81.60
2018-02-10T12:12:31.219Z,82.60
2018-02-10T12:14:58.955Z,80.70
2018-02-10T12:17:26.646Z,79.00
2018-02-10T12:19:54.334Z,78.40
2018-02-10T12:22:22.685Z,76.40
2018-02-10T12:24:50.314Z,76.20
2018-02-10T12:27:17.929Z,75.40
2018-02-10T12:29:45.516Z,75.70
2018-02-10T12:32:13.147Z,77.90
2018-02-10T12:34:41.571Z,85.20
2018-02-10T12:37:09.207Z,85.20
2018-02-10T12:39:37.061Z,79.10
2018-02-10T12:42:04.728Z,78.50
2018-02-10T12:44:32.824Z,77.90
2018-02-10T12:47:00.459Z,78.50
2018-02-10T12:49:39.741Z,76.90
2018-02-10T12:52:14.400Z,78.80
2018-02-10T12:54:49.924Z,78.00
2018-02-10T12:57:17.691Z,78.40
2018-02-10T12:59:45.321Z,77.70
2018-02-10T13:02:13.864Z,76.90
2018-02-10T13:04:41.737Z,76.90
2018-02-10T13:07:09.396Z,77.00
2018-02-10T13:09:38.164Z,78.10
2018-02-10T13:12:06.565Z,78.20
2018-02-10T13:14:34.943Z,78.70
2018-02-10T13:17:03.614Z,80.30
2018-02-10T13:19:36.410Z,79.90
2018-02-10T13:22:04.545Z,80.50
2018-02-10T13:24:34.596Z,79.40
2018-02-10T13:27:02.254Z,79.30
2018-02-10T13:29:29.861Z,79.00
2018-02-10T13:32:22.165Z,78.40
2018-02-10T13:34:49.871Z,77.50
2018-02-10T13:37:19.383Z,80.50
2018-02-10T13:39:47.010Z,79.50
2018-02-10T13:42:14.643Z,76.70
2018-02-10T13:44:42.306Z,76.40
2018-02-10T13:47:09.940Z,78.80
2018-02-10T13:49:37.566Z,80.70
2018-02-10T13:52:05.184Z,79.10
2018-02-10T13:54:32.823Z,79.10
2018-02-10T13:57:00.521Z,77.80
2018-02-10T13:59:28.139Z,76.90
2018-02-10T14:01:55.790Z,76.70
2018-02-10T14:04:23.489Z,76.30
2018-02-10T14:06:51.175Z,76.00
2018-02-10T14:09:18.818Z,76.00
2018-02-10T14:11:46.625Z,76.80
2018-02-10T14:14:14.244Z,75.60
2018-02-10T14:16:41.872Z,73.00
2018-02-10T14:19:09.516Z,74.40
2018-02-10T14:21:37.984Z,74.40
2018-02-10T14:24:05.653Z,74.30
2018-02-10T14:26:50.484Z,73.70
2018-02-10T14:29:18.122Z,72.50
2018-02-10T14:31:46.584Z,72.80
2018-02-10T14:34:14.245Z,72.80
2018-02-10T14:36:41.890Z,74.70
2018-02-10T14:39:09.582Z,74.90
2018-02-10T14:41:38.212Z,73.20
2018-02-10T14:44:06.062Z,73.00
2018-02-10T14:46:33.934Z,74.40
2018-02-10T14:49:01.571Z,75.20
2018-02-10T14:51:29.994Z,77.00
2018-02-10T14:53:57.606Z,76.90
2018-02-10T14:56:26.744Z,75.60
2018-02-10T14:58:55.169Z,73.60
2018-02-10T15:01:22.807Z,73.60
2018-02-10T15:03:51.217Z,76.30
2018-02-10T15:06:18.915Z,76.30
2018-02-10T15:08:46.553Z,76.30
2018-02-10T15:11:14.974Z,76.00
2018-02-10T15:13:42.637Z,75.90
2018-02-10T15:16:10.241Z,75.90
2018-02-10T15:18:37.918Z,76.70
2018-02-10T15:21:05.565Z,77.80
2018-02-10T15:23:33.177Z,78.40
2018-02-10T15:26:00.818Z,78.60
2018-02-10T15:28:28.446Z,79.10
2018-02-10T15:31:08.758Z,79.50
2018-02-10T15:33:48.213Z,79.50
2018-02-10T15:36:15.852Z,80.40
2018-02-10T15:38:44.241Z,81.00
2018-02-10T15:41:12.638Z,81.30
2018-02-10T15:43:41.163Z,82.00
2018-02-10T15:46:08.821Z,81.90
2018-02-10T15:48:36.444Z,82.40
2018-02-10T15:51:04.148Z,82.60
2018-02-10T15:53:32.852Z,83.00
2018-02-10T15:56:17.954Z,84.00
2018-02-10T15:58:45.625Z,83.90
2018-02-10T16:01:13.247Z,84.50
2018-02-10T16:03:40.866Z,84.30
2018-02-10T16:06:08.497Z,84.20
2018-02-10T16:08:36.109Z,83.80
2018-02-10T16:11:03.753Z,84.30
2018-02-10T16:13:31.359Z,84.50
2018-02-10T16:15:58.998Z,84.00
2018-02-10T16:18:28.142Z,85.20
2018-02-10T16:20:55.777Z,85.20
2018-02-10T16:23:23.398Z,85.80
2018-02-10T16:25:51.150Z,86.00
2018-02-10T16:28:19.571Z,86.40
2018-02-10T16:36:36.790Z,86.90
2018-02-10T16:39:04.413Z,86.20
2018-02-10T16:41:32.050Z,87.20
2018-02-10T16:43:59.660Z,87.50
2018-02-10T16:46:28.083Z,87.60
2018-02-10T16:48:55.745Z,87.60
2018-02-10T16:51:23.434Z,88.00
2018-02-10T16:53:51.082Z,88.40
2018-02-10T16:56:18.886Z,88.80
2018-02-10T16:58:46.506Z,89.10
2018-02-10T17:01:14.290Z,89.70
2018-02-10T17:03:42.722Z,90.10
2018-02-10T17:06:10.400Z,90.10
2018-02-10T17:08:38.065Z,90.10
2018-02-10T17:11:05.709Z,90.20
2018-02-10T17:13:34.118Z,90.50
2018-02-10T17:16:01.920Z,90.50
2018-02-10T17:18:29.548Z,90.20
2018-02-10T17:20:57.978Z,90.00
2018-02-10T17:23:26.630Z,90.00
2018-02-10T17:25:54.277Z,90.20
2018-02-10T17:28:21.889Z,90.70
2018-02-10T17:30:49.614Z,89.80
2018-02-10T17:33:17.234Z,89.50
2018-02-10T17:35:44.869Z,89.80
2018-02-10T17:38:12.486Z,89.60
2018-02-10T17:40:40.858Z,90.20
2018-02-10T17:43:08.478Z,90.20
2018-02-10T17:45:36.154Z,90.30
2018-02-10T17:48:03.934Z,90.60
2018-02-10T17:50:31.554Z,90.40
2018-02-10T17:53:05.841Z,90.20
2018-02-10T17:55:40.654Z,90.10
2018-02-10T17:58:09.312Z,90.00
2018-02-10T18:00:37.018Z,90.00
2018-02-10T18:03:05.420Z,90.40
2018-02-10T18:05:33.043Z,90.40
2018-02-10T18:08:06.777Z,90.20
2018-02-10T18:10:34.410Z,90.30
2018-02-10T18:13:02.335Z,90.10
2018-02-10T18:15:30.011Z,90.30
2018-02-10T18:17:57.609Z,90.30
2018-02-10T18:20:25.976Z,90.60
2018-02-10T18:22:53.661Z,90.60
2018-02-10T18:25:22.050Z,90.60
2018-02-10T18:27:50.445Z,90.70
2018-02-10T18:30:18.962Z,90.50
2018-02-10T18:32:46.788Z,90.50
2018-02-10T18:35:14.408Z,90.30
2018-02-10T18:37:42.035Z,90.10
2018-02-10T18:40:09.671Z,89.60
2018-02-10T18:42:37.306Z,89.00
2018-02-10T18:45:05.685Z,88.80
2018-02-10T18:47:34.872Z,89.00
2018-02-10T18:50:02.496Z,88.90
2018-02-10T18:52:30.122Z,88.50
2018-02-10T18:54:57.748Z,88.90
2018-02-10T18:57:26.127Z,88.70
2018-02-10T18:59:54.709Z,88.90
2018-02-10T19:02:23.148Z,89.10
2018-02-10T19:04:50.770Z,89.10
2018-02-10T19:07:18.361Z,89.10
2018-02-10T19:09:46.724Z,89.40
2018-02-10T19:12:14.328Z,89.40
2018-02-10T19:14:42.854Z,90.20
2018-02-10T19:17:10.460Z,89.70
2018-02-10T19:19:38.115Z,89.70
2018-02-10T19:22:05.712Z,89.80
2018-02-10T19:24:33.354Z,90.00
2018-02-10T19:27:01.022Z,89.90
2018-02-10T19:29:28.682Z,90.00
2018-02-10T19:31:56.478Z,90.10
2018-02-10T19:34:24.147Z,90.30
2018-02-10T19:36:51.803Z,90.30
2018-02-10T19:39:19.445Z,90.30
2018-02-10T19:41:47.066Z,90.30
2018-02-10T19:44:14.690Z,90.50
2018-02-10T19:46:43.085Z,90.70
2018-02-10T19:49:10.701Z,90.70
2018-02-10T19:51:38.484Z,90.70
2018-02-10T19:54:06.097Z,90.70
2018-02-10T19:56:33.790Z,90.70
2018-02-10T19:59:02.189Z,91.00
2018-02-10T20:01:29.815Z,91.00
2018-02-10T20:03:57.428Z,91.30
2018-02-10T20:06:25.846Z,91.30
2018-02-10T20:08:53.493Z,91.30
2018-02-10T20:11:21.885Z,91.00
2018-02-10T20:13:50.353Z,91.20
2018-02-10T20:16:18.010Z,91.10
2018-02-10T20:18:45.795Z,91.30
2018-02-10T20:21:13.409Z,91.30
2018-02-10T20:23:55.724Z,91.20
2018-02-10T20:26:24.181Z,91.20
2018-02-10T20:28:51.838Z,91.20
2018-02-10T20:31:19.606Z,91.40
2018-02-10T20:33:47.274Z,91.70
2018-02-10T20:36:14.929Z,91.50
2018-02-10T20:38:42.567Z,91.40
2018-02-10T20:41:10.298Z,91.30
2018-02-10T20:43:37.942Z,91.30
2018-02-10T20:46:06.356Z,91.40
2018-02-10T20:48:33.956Z,91.30
2018-02-10T20:51:01.607Z,91.50
2018-02-10T20:53:29.286Z,91.70
2018-02-10T20:55:56.978Z,91.80
2018-02-10T20:58:24.639Z,92.00
2018-02-10T21:00:52.322Z,92.10
2018-02-10T21:03:19.941Z,92.20
2018-02-10T21:05:48.413Z,92.40
2018-02-10T21:08:16.009Z,92.30
2018-02-10T21:10:44.638Z,92.40
2018-02-10T21:13:12.336Z,92.30
2018-02-10T21:15:40.007Z,92.60
2018-02-10T21:18:07.591Z,92.70
2018-02-10T21:20:35.253Z,92.80
2018-02-10T21:23:02.893Z,92.80
2018-02-10T21:25:30.689Z,92.50
2018-02-10T21:27:58.364Z,92.70
2018-02-10T21:30:26.109Z,92.70
2018-02-10T21:32:54.489Z,92.80
2018-02-10T21:35:23.077Z,92.90
2018-02-10T21:37:51.489Z,92.90
2018-02-10T21:40:19.136Z,92.90
2018-02-10T21:42:47.653Z,93.10
2018-02-10T21:45:16.057Z,93.40
2018-02-10T21:47:44.445Z,93.40
2018-02-10T21:50:12.449Z,93.40
2018-02-10T21:52:40.108Z,93.50
2018-02-10T21:55:07.778Z,93.50
2018-02-10T21:57:35.414Z,93.50
2018-02-10T22:00:03.026Z,93.70
2018-02-10T22:02:30.657Z,93.60
2018-02-10T22:08:16.322Z,93.80
2018-02-10T22:10:44.724Z,93.80
2018-02-10T22:13:12.329Z,93.80
2018-02-10T22:15:39.969Z,93.90
2018-02-10T22:18:07.581Z,94.00
2018-02-10T22:20:35.218Z,94.00
2018-02-10T22:23:02.914Z,94.00
2018-02-10T22:25:30.568Z,93.90
2018-02-10T22:27:58.254Z,94.00
2018-02-10T22:30:25.885Z,94.00
2018-02-10T22:32:54.294Z,94.50
2018-02-10T22:35:22.712Z,94.00
2018-02-10T22:37:50.340Z,94.30
2018-02-10T22:40:18.724Z,93.70
2018-02-10T22:42:46.837Z,93.70
2018-02-10T22:45:14.495Z,93.70
2018-02-10T22:47:42.930Z,93.80
2018-02-10T22:50:10.551Z,93.70
2018-02-10T22:52:38.171Z,93.70
2018-02-10T22:55:05.805Z,94.00
2018-02-10T22:57:34.192Z,94.00
2018-02-10T23:00:02.575Z,93.70
2018-02-10T23:02:30.219Z,93.70
2018-02-10T23:04:57.887Z,93.70
2018-02-10T23:07:25.560Z,93.70
2018-02-10T23:09:53.220Z,93.70
2018-02-10T23:12:20.840Z,93.70
2018-02-10T23:14:48.461Z,93.70
2018-02-10T23:17:16.247Z,93.60
2018-02-10T23:19:43.840Z,93.60
2018-02-10T23:22:11.467Z,93.60
2018-02-10T23:24:39.865Z,93.90
2018-02-10T23:27:07.526Z,93.90
2018-02-10T23:29:35.920Z,94.10
2018-02-10T23:32:04.322Z,94.20
2018-02-10T23:34:31.978Z,94.20
2018-02-10T23:37:00.369Z,94.10
2018-02-10T23:39:28.757Z,94.00
2018-02-10T23:41:56.357Z,94.00
2018-02-10T23:44:24.018Z,94.00
2018-02-10T23:46:52.410Z,93.90
2018-02-10T23:49:20.072Z,93.90
2018-02-10T23:51:48.497Z,93.80
2018-02-10T23:54:16.149Z,93.80
2018-02-10T23:56:43.836Z,93.90
2018-02-10T23:59:11.481Z,93.90
